<?xml version="1.0" encoding="utf-8"?>
<gpx xmlns:xsi="http://www.w3.org/2001/XMLSchema-instance" xmlns:xsd="http://www.w3.org/2001/XMLSchema" version="1.1" creator="Shapelink.com" xmlns="http://www.topografix.com/GPX/1/1" xmlns:gpxtpx="http://www.garmin.com/xmlschemas/TrackPointExtension/v1">
  <metadata>
    <name>Övrigt 2.21 km, 2019-07-21</name>
    <desc></desc>
    <author><name>Marian Moron</name></author> 
    <time>2019-07-21T20:00:08Z</time>
  </metadata>
  <trk>
    <name>Övrigt 2.21 km, 2019-07-21</name>
    <trkseg>
      <trkpt lat="51.229576176358" lon="4.458141670318">
        <ele>23</ele>
        <time>2019-07-21T20:00:08Z</time>
      </trkpt>
      <trkpt lat="51.229935676049" lon="4.458110573469">
        <ele>43.8</ele>
        <time>2019-07-21T20:00:13Z</time>
      </trkpt>
      <trkpt lat="51.230126531912" lon="4.458758913434">
        <ele>29</ele>
        <time>2019-07-21T20:00:38Z</time>
      </trkpt>
      <trkpt lat="51.230138182753" lon="4.459071809761">
        <ele>21.6</ele>
        <time>2019-07-21T20:01:03Z</time>
      </trkpt>
      <trkpt lat="51.230154024544" lon="4.45907943729">
        <ele>21</ele>
        <time>2019-07-21T20:01:06Z</time>
      </trkpt>
      <trkpt lat="51.2305248398" lon="4.459058231083">
        <ele>13.2</ele>
        <time>2019-07-21T20:01:57Z</time>
      </trkpt>
      <trkpt lat="51.230569766784" lon="4.459059823644">
        <ele>16.4</ele>
        <time>2019-07-21T20:02:04Z</time>
      </trkpt>
      <trkpt lat="51.230574963562" lon="4.459208686188">
        <ele>16.6</ele>
        <time>2019-07-21T20:02:24Z</time>
      </trkpt>
      <trkpt lat="51.230621064012" lon="4.459487887277">
        <ele>13.8</ele>
        <time>2019-07-21T20:03:11Z</time>
      </trkpt>
      <trkpt lat="51.230582339634" lon="4.459719730631">
        <ele>13.2</ele>
        <time>2019-07-21T20:03:32Z</time>
      </trkpt>
      <trkpt lat="51.230607317696" lon="4.459838250697">
        <ele>10.6</ele>
        <time>2019-07-21T20:03:46Z</time>
      </trkpt>
      <trkpt lat="51.230673367068" lon="4.459935480737">
        <ele>9.8</ele>
        <time>2019-07-21T20:03:52Z</time>
      </trkpt>
      <trkpt lat="51.230732375644" lon="4.460655653585">
        <ele>4.6</ele>
        <time>2019-07-21T20:04:40Z</time>
      </trkpt>
      <trkpt lat="51.230618633261" lon="4.460744837001">
        <ele>3</ele>
        <time>2019-07-21T20:04:52Z</time>
      </trkpt>
      <trkpt lat="51.230492904761" lon="4.460808287984">
        <ele>2.8</ele>
        <time>2019-07-21T20:05:05Z</time>
      </trkpt>
      <trkpt lat="51.230267766927" lon="4.460820274101">
        <ele>5.6</ele>
        <time>2019-07-21T20:06:19Z</time>
      </trkpt>
      <trkpt lat="51.23021554769" lon="4.460830248562">
        <ele>5.8</ele>
        <time>2019-07-21T20:06:24Z</time>
      </trkpt>
      <trkpt lat="51.23016022715" lon="4.460839720109">
        <ele>5.6</ele>
        <time>2019-07-21T20:06:29Z</time>
      </trkpt>
      <trkpt lat="51.230081018195" lon="4.460856735366">
        <ele>5.8</ele>
        <time>2019-07-21T20:06:38Z</time>
      </trkpt>
      <trkpt lat="51.229967359631" lon="4.460893028993">
        <ele>8.4</ele>
        <time>2019-07-21T20:06:49Z</time>
      </trkpt>
      <trkpt lat="51.229834506516" lon="4.46092177891">
        <ele>15.8</ele>
        <time>2019-07-21T20:07:15Z</time>
      </trkpt>
      <trkpt lat="51.229724116893" lon="4.461009872679">
        <ele>16.4</ele>
        <time>2019-07-21T20:07:27Z</time>
      </trkpt>
      <trkpt lat="51.229762505995" lon="4.461134595351">
        <ele>10</ele>
        <time>2019-07-21T20:07:37Z</time>
      </trkpt>
      <trkpt lat="51.229878679129" lon="4.461470038989">
        <ele>3</ele>
        <time>2019-07-21T20:07:59Z</time>
      </trkpt>
      <trkpt lat="51.230074228856" lon="4.462098094756">
        <ele>4</ele>
        <time>2019-07-21T20:08:52Z</time>
      </trkpt>
      <trkpt lat="51.23021806226" lon="4.462778872674">
        <ele>10.2</ele>
        <time>2019-07-21T20:09:31Z</time>
      </trkpt>
      <trkpt lat="51.230281597062" lon="4.463005351612">
        <ele>15.8</ele>
        <time>2019-07-21T20:09:47Z</time>
      </trkpt>
      <trkpt lat="51.230392321961" lon="4.463376334506">
        <ele>12.8</ele>
        <time>2019-07-21T20:10:06Z</time>
      </trkpt>
      <trkpt lat="51.230570856431" lon="4.464003132988">
        <ele>9</ele>
        <time>2019-07-21T20:10:37Z</time>
      </trkpt>
      <trkpt lat="51.230646880264" lon="4.46422592389">
        <ele>15</ele>
        <time>2019-07-21T20:11:06Z</time>
      </trkpt>
      <trkpt lat="51.230713935464" lon="4.46444552967">
        <ele>10.4</ele>
        <time>2019-07-21T20:11:24Z</time>
      </trkpt>
      <trkpt lat="51.230742014829" lon="4.46453437781">
        <ele>10.4</ele>
        <time>2019-07-21T20:11:31Z</time>
      </trkpt>
      <trkpt lat="51.230788450555" lon="4.465254802115">
        <ele>16.4</ele>
        <time>2019-07-21T20:12:08Z</time>
      </trkpt>
      <trkpt lat="51.230853913194" lon="4.465727205999">
        <ele>11.6</ele>
        <time>2019-07-21T20:12:35Z</time>
      </trkpt>
      <trkpt lat="51.230842178534" lon="4.46581848489">
        <ele>13.2</ele>
        <time>2019-07-21T20:12:41Z</time>
      </trkpt>
      <trkpt lat="51.230806304002" lon="4.466330116066">
        <ele>11.6</ele>
        <time>2019-07-21T20:13:12Z</time>
      </trkpt>
      <trkpt lat="51.2307427692" lon="4.466685257169">
        <ele>9.8</ele>
        <time>2019-07-21T20:13:41Z</time>
      </trkpt>
      <trkpt lat="51.230738913526" lon="4.466725155013">
        <ele>12.2</ele>
        <time>2019-07-21T20:13:49Z</time>
      </trkpt>
      <trkpt lat="51.230725251029" lon="4.467046014145">
        <ele>11</ele>
        <time>2019-07-21T20:14:41Z</time>
      </trkpt>
      <trkpt lat="51.230658279648" lon="4.467327310709">
        <ele>10</ele>
        <time>2019-07-21T20:15:27Z</time>
      </trkpt>
      <trkpt lat="51.230504555602" lon="4.467366873277">
        <ele>7</ele>
        <time>2019-07-21T20:15:57Z</time>
      </trkpt>
      <trkpt lat="51.230392824875" lon="4.467425546577">
        <ele>9.6</ele>
        <time>2019-07-21T20:16:19Z</time>
      </trkpt>
      <trkpt lat="51.230241866856" lon="4.467474077778">
        <ele>9</ele>
        <time>2019-07-21T20:16:34Z</time>
      </trkpt>
      <trkpt lat="51.23014597792" lon="4.467507270102">
        <ele>8.8</ele>
        <time>2019-07-21T20:16:45Z</time>
      </trkpt>
      <trkpt lat="51.229929557262" lon="4.467555885122">
        <ele>5.8</ele>
        <time>2019-07-21T20:17:22Z</time>
      </trkpt>
      <trkpt lat="51.229610458329" lon="4.467652863705">
        <ele>8.6</ele>
        <time>2019-07-21T20:17:58Z</time>
      </trkpt>
      <trkpt lat="51.229164038335" lon="4.467522357522">
        <ele>2</ele>
        <time>2019-07-21T20:18:33Z</time>
      </trkpt>
      <trkpt lat="51.229071753616" lon="4.467495619261">
        <ele>2.6</ele>
        <time>2019-07-21T20:18:41Z</time>
      </trkpt>
      <trkpt lat="51.228861703202" lon="4.467512550699">
        <ele>4.8</ele>
        <time>2019-07-21T20:19:03Z</time>
      </trkpt>
      <trkpt lat="51.228694149021" lon="4.467626963634">
        <ele>9.6</ele>
        <time>2019-07-21T20:19:27Z</time>
      </trkpt>
      <trkpt lat="51.228502371149" lon="4.467546245937">
        <ele>8.8</ele>
        <time>2019-07-21T20:19:44Z</time>
      </trkpt>
      <trkpt lat="51.228434561578" lon="4.467443483843">
        <ele>14.4</ele>
        <time>2019-07-21T20:20:16Z</time>
      </trkpt>
      <trkpt lat="51.228173213936" lon="4.467253047075">
        <ele>14.4</ele>
        <time>2019-07-21T20:20:54Z</time>
      </trkpt>
      <trkpt lat="51.228132561721" lon="4.467212813955">
        <ele>12.4</ele>
        <time>2019-07-21T20:20:59Z</time>
      </trkpt>
      <trkpt lat="51.228098447388" lon="4.467171742645">
        <ele>9.4</ele>
        <time>2019-07-21T20:21:04Z</time>
      </trkpt>
      <trkpt lat="51.227929971198" lon="4.467195211965">
        <ele>6</ele>
        <time>2019-07-21T20:21:33Z</time>
      </trkpt>
      <trkpt lat="51.227779432274" lon="4.467254555817">
        <ele>12.4</ele>
        <time>2019-07-21T20:22:09Z</time>
      </trkpt>
      <trkpt lat="51.227762919931" lon="4.467176520328">
        <ele>14.8</ele>
        <time>2019-07-21T20:22:15Z</time>
      </trkpt>
      <trkpt lat="51.227743809199" lon="4.467059173728">
        <ele>13.2</ele>
        <time>2019-07-21T20:22:24Z</time>
      </trkpt>
      <trkpt lat="51.227713634359" lon="4.466948700286">
        <ele>13</ele>
        <time>2019-07-21T20:22:36Z</time>
      </trkpt>
      <trkpt lat="51.227695445636" lon="4.466867982589">
        <ele>14</ele>
        <time>2019-07-21T20:22:45Z</time>
      </trkpt>
      <trkpt lat="51.227654458145" lon="4.466523486499">
        <ele>10.4</ele>
        <time>2019-07-21T20:23:09Z</time>
      </trkpt>
      <trkpt lat="51.227790580201" lon="4.466456766575">
        <ele>6</ele>
        <time>2019-07-21T20:23:38Z</time>
      </trkpt>
      <trkpt lat="51.227860988161" lon="4.466492222012">
        <ele>8.4</ele>
        <time>2019-07-21T20:23:53Z</time>
      </trkpt>
      <trkpt lat="51.227881942911" lon="4.466407061908">
        <ele>10.8</ele>
        <time>2019-07-21T20:24:00Z</time>
      </trkpt>
      <trkpt lat="51.227868531871" lon="4.46621913971">
        <ele>8.2</ele>
        <time>2019-07-21T20:24:18Z</time>
      </trkpt>
      <trkpt lat="51.227842212705" lon="4.46577070806">
        <ele>0</ele>
        <time>2019-07-21T20:25:15Z</time>
      </trkpt>
      <trkpt lat="51.227891330639" lon="4.465550599366">
        <ele>6.6</ele>
        <time>2019-07-21T20:25:46Z</time>
      </trkpt>
      <trkpt lat="51.227915889606" lon="4.465142484655">
        <ele>16.2</ele>
        <time>2019-07-21T20:26:12Z</time>
      </trkpt>
      <trkpt lat="51.227872136088" lon="4.464935619363">
        <ele>12.8</ele>
        <time>2019-07-21T20:26:25Z</time>
      </trkpt>
      <trkpt lat="51.227812624598" lon="4.46426028968">
        <ele>10.4</ele>
        <time>2019-07-21T20:27:09Z</time>
      </trkpt>
      <trkpt lat="51.227771804745" lon="4.464080246468">
        <ele>7.6</ele>
        <time>2019-07-21T20:27:20Z</time>
      </trkpt>
      <trkpt lat="51.227774319315" lon="4.463592671345">
        <ele>9.8</ele>
        <time>2019-07-21T20:27:52Z</time>
      </trkpt>
      <trkpt lat="51.227764428673" lon="4.463511953648">
        <ele>8.6</ele>
        <time>2019-07-21T20:27:58Z</time>
      </trkpt>
      <trkpt lat="51.227754957126" lon="4.4634707147">
        <ele>8.2</ele>
        <time>2019-07-21T20:28:01Z</time>
      </trkpt>
      <trkpt lat="51.227710952151" lon="4.463145580799">
        <ele>6.4</ele>
        <time>2019-07-21T20:28:28Z</time>
      </trkpt>
      <trkpt lat="51.227681028768" lon="4.463030581131">
        <ele>6</ele>
        <time>2019-07-21T20:28:36Z</time>
      </trkpt>
      <trkpt lat="51.227598634691" lon="4.462704776678">
        <ele>4.2</ele>
        <time>2019-07-21T20:29:01Z</time>
      </trkpt>
      <trkpt lat="51.227581703253" lon="4.462554405392">
        <ele>4.4</ele>
        <time>2019-07-21T20:29:18Z</time>
      </trkpt>
      <trkpt lat="51.227571309697" lon="4.462525571656">
        <ele>4.6</ele>
        <time>2019-07-21T20:29:20Z</time>
      </trkpt>
      <trkpt lat="51.227496626968" lon="4.462193480778">
        <ele>3.6</ele>
        <time>2019-07-21T20:29:40Z</time>
      </trkpt>
      <trkpt lat="51.227469888707" lon="4.462020562181">
        <ele>4.6</ele>
        <time>2019-07-21T20:29:52Z</time>
      </trkpt>
      <trkpt lat="51.227445832654" lon="4.461892067654">
        <ele>4</ele>
        <time>2019-07-21T20:30:02Z</time>
      </trkpt>
      <trkpt lat="51.227385566793" lon="4.461772960855">
        <ele>4.8</ele>
        <time>2019-07-21T20:30:10Z</time>
      </trkpt>
      <trkpt lat="51.227371401382" lon="4.461685202362">
        <ele>4.4</ele>
        <time>2019-07-21T20:30:19Z</time>
      </trkpt>
      <trkpt lat="51.227348854071" lon="4.461547487745">
        <ele>5</ele>
        <time>2019-07-21T20:30:28Z</time>
      </trkpt>
      <trkpt lat="51.227344998397" lon="4.46149929182">
        <ele>5.8</ele>
        <time>2019-07-21T20:30:33Z</time>
      </trkpt>
      <trkpt lat="51.227341561818" lon="4.461373898596">
        <ele>6.6</ele>
        <time>2019-07-21T20:30:49Z</time>
      </trkpt>
      <trkpt lat="51.227365198776" lon="4.46131572821">
        <ele>6.4</ele>
        <time>2019-07-21T20:30:55Z</time>
      </trkpt>
      <trkpt lat="51.22734977608" lon="4.46122185093">
        <ele>6.8</ele>
        <time>2019-07-21T20:31:03Z</time>
      </trkpt>
      <trkpt lat="51.227344411664" lon="4.461207350243">
        <ele>6.8</ele>
        <time>2019-07-21T20:31:05Z</time>
      </trkpt>
      <trkpt lat="51.22738833282" lon="4.46104918379">
        <ele>6.2</ele>
        <time>2019-07-21T20:31:32Z</time>
      </trkpt>
      <trkpt lat="51.22749143019" lon="4.460782052637">
        <ele>4.4</ele>
        <time>2019-07-21T20:31:55Z</time>
      </trkpt>
      <trkpt lat="51.227774570772" lon="4.460607290022">
        <ele>13.6</ele>
        <time>2019-07-21T20:32:31Z</time>
      </trkpt>
      <trkpt lat="51.22811169079" lon="4.460419284005">
        <ele>15.8</ele>
        <time>2019-07-21T20:33:07Z</time>
      </trkpt>
      <trkpt lat="51.228268348501" lon="4.460289448374">
        <ele>13.8</ele>
        <time>2019-07-21T20:33:43Z</time>
      </trkpt>
      <trkpt lat="51.228358202469" lon="4.460013935321">
        <ele>12.2</ele>
        <time>2019-07-21T20:34:01Z</time>
      </trkpt>
      <trkpt lat="51.228394244639" lon="4.45963515726">
        <ele>4.2</ele>
        <time>2019-07-21T20:34:36Z</time>
      </trkpt>
      <trkpt lat="51.228519973139" lon="4.458990756788">
        <ele>7</ele>
        <time>2019-07-21T20:35:16Z</time>
      </trkpt>
      <trkpt lat="51.22851905113" lon="4.458945243071">
        <ele>7</ele>
        <time>2019-07-21T20:35:23Z</time>
      </trkpt>
      <trkpt lat="51.22851234561" lon="4.458652128028">
        <ele>8.4</ele>
        <time>2019-07-21T20:35:47Z</time>
      </trkpt>
      <trkpt lat="51.228606474347" lon="4.458178802135">
        <ele>8.6</ele>
        <time>2019-07-21T20:36:17Z</time>
      </trkpt>
      <trkpt lat="51.229019534379" lon="4.458165894009">
        <ele>16.2</ele>
        <time>2019-07-21T20:37:14Z</time>
      </trkpt>
      <trkpt lat="51.229385823409" lon="4.458043182993">
        <ele>14.6</ele>
        <time>2019-07-21T20:37:45Z</time>
      </trkpt>
      <trkpt lat="51.229736438286" lon="4.457958274346">
        <ele>12.4</ele>
        <time>2019-07-21T20:38:15Z</time>
      </trkpt>
      <trkpt lat="51.229721183228" lon="4.457982581856">
        <ele>11.6</ele>
        <time>2019-07-21T20:38:18Z</time>
      </trkpt>
      <trkpt lat="51.229649434164" lon="4.457976211612">
        <ele>5.4</ele>
        <time>2019-07-21T20:38:39Z</time>
      </trkpt>
    </trkseg>
  </trk>
</gpx>